Time;durP1;ratioP1;P1;durP2;ratioP2;P2;SDS_P1;SDS_P2;PMS_P1;PMS_P2;Temp;Humidity;BMP_temperature;BMP_pressure;BME280_temperature;BME280_humidity;BME280_pressure;Samples;Min_cycle;Max_cycle;Signal;HPM_P1;HPM_P2
2021/03/28 00:00:00;;;;;;;12.23;5.93;;;18.90;54.30;;;;;;4975563;28;20098;-71
2021/03/28 00:02:36;;;;;;;12.15;6.07;;;18.80;54.40;;;;;;4977773;28;20405;-70
2021/03/28 00:05:07;;;;;;;13.00;6.32;;;18.80;54.30;;;;;;4975379;28;20026;-71
2021/03/28 00:07:56;;;;;;;10.98;6.10;;;18.90;54.30;;;;;;4973695;28;20053;-71
2021/03/28 00:10:38;;;;;;;10.30;5.60;;;18.90;54.20;;;;;;4981941;28;20038;-70
2021/03/28 00:13:12;;;;;;;13.07;5.75;;;18.80;54.20;;;;;;4990057;28;20117;-69
2021/03/28 00:15:46;;;;;;;12.40;5.82;;;18.90;54.20;;;;;;4975916;28;20161;-70
2021/03/28 00:18:36;;;;;;;10.02;5.00;;;18.90;54.30;;;;;;4978998;28;20039;-71
2021/03/28 00:21:23;;;;;;;11.73;4.95;;;18.80;54.30;;;;;;4984554;28;20022;-69
2021/03/28 00:24:08;;;;;;;10.10;4.63;;;18.80;54.30;;;;;;4973253;28;20564;-69
2021/03/28 00:26:40;;;;;;;9.73;4.93;;;18.80;54.30;;;;;;4988185;28;20558;-70
2021/03/28 00:29:25;;;;;;;9.63;4.70;;;18.80;54.10;;;;;;4982662;28;20030;-69
2021/03/28 00:32:07;;;;;;;12.10;5.05;;;18.90;54.10;;;;;;4990977;28;20030;-70
2021/03/28 00:34:39;;;;;;;12.63;5.13;;;18.80;54.10;;;;;;4982585;28;20056;-69
2021/03/28 00:37:07;;;;;;;10.48;4.45;;;18.80;54.20;;;;;;4989202;28;20018;-69
2021/03/28 00:39:48;;;;;;;11.07;4.97;;;18.80;54.30;;;;;;4985700;28;20384;-69
2021/03/28 00:42:22;;;;;;;10.63;4.28;;;18.80;54.20;;;;;;4972484;28;20027;-70
2021/03/28 00:45:12;;;;;;;9.48;4.22;;;18.80;54.20;;;;;;4972652;28;20038;-71
2021/03/28 00:47:41;;;;;;;7.70;3.95;;;18.70;54.20;;;;;;4980674;28;20053;-69
2021/03/28 00:50:36;;;;;;;9.68;3.95;;;18.70;54.20;;;;;;4981215;28;20034;-70
2021/03/28 00:53:05;;;;;;;8.35;3.63;;;18.70;54.30;;;;;;4980029;28;20065;-68
2021/03/28 00:55:42;;;;;;;8.57;3.65;;;18.70;54.10;;;;;;4992178;28;20022;-68
2021/03/28 00:58:17;;;;;;;9.43;3.70;;;18.70;54.10;;;;;;4990036;28;20488;-70
2021/03/28 01:01:13;;;;;;;9.40;3.90;;;18.70;54.20;;;;;;4985057;28;20033;-69
2021/03/28 01:04:18;;;;;;;7.95;3.67;;;18.70;54.30;;;;;;4973355;28;20026;-67
2021/03/28 01:07:13;;;;;;;10.38;3.47;;;18.70;54.20;;;;;;4973466;28;20562;-68
2021/03/28 01:10:27;;;;;;;9.32;3.55;;;18.70;54.20;;;;;;4976225;28;20038;-70
2021/03/28 01:13:30;;;;;;;8.13;3.55;;;18.70;54.10;;;;;;4947032;28;20044;-72
2021/03/28 01:16:37;;;;;;;10.65;3.78;;;18.70;54.10;;;;;;4982892;28;20090;-69
2021/03/28 01:19:28;;;;;;;8.25;3.22;;;18.70;54.00;;;;;;4983494;28;20081;-67
2021/03/28 01:22:09;;;;;;;9.70;3.60;;;18.60;54.00;;;;;;4976003;28;20062;-71
2021/03/28 01:24:51;;;;;;;9.65;3.47;;;18.60;54.50;;;;;;4983344;28;20549;-69
2021/03/28 01:27:28;;;;;;;9.40;3.10;;;18.60;54.00;;;;;;4974322;28;20046;-68
2021/03/28 01:30:12;;;;;;;8.43;3.03;;;18.60;54.00;;;;;;4973157;28;20026;-69
2021/03/28 01:32:48;;;;;;;9.93;3.15;;;18.60;54.10;;;;;;4974892;28;20038;-69
2021/03/28 01:35:19;;;;;;;7.15;3.00;;;18.60;53.90;;;;;;4988940;28;20473;-69
2021/03/28 01:38:18;;;;;;;6.15;2.88;;;18.60;53.80;;;;;;4987659;28;20026;-68
2021/03/28 01:41:09;;;;;;;8.63;3.47;;;18.70;53.90;;;;;;4970872;28;20493;-69
2021/03/28 01:44:05;;;;;;;10.15;3.08;;;18.60;53.80;;;;;;4972455;28;20031;-69
2021/03/28 01:46:49;;;;;;;7.43;3.00;;;18.60;53.70;;;;;;4972272;28;20027;-70
2021/03/28 01:49:46;;;;;;;7.15;2.85;;;18.70;53.70;;;;;;4989461;28;20030;-70
2021/03/28 01:52:39;;;;;;;7.97;3.03;;;18.70;53.70;;;;;;4989371;28;20031;-69
2021/03/28 01:55:34;;;;;;;6.47;2.60;;;18.70;53.70;;;;;;4994125;28;20085;-70
2021/03/28 01:58:12;;;;;;;5.30;2.28;;;18.70;53.60;;;;;;4981445;28;20090;-68
2021/03/28 02:01:06;;;;;;;6.55;2.70;;;18.60;53.60;;;;;;4977325;28;20034;-71
2021/03/28 02:03:39;;;;;;;7.15;2.50;;;18.60;53.80;;;;;;4994067;28;20018;-70
2021/03/28 02:06:24;;;;;;;5.55;2.33;;;18.60;53.60;;;;;;4993966;28;20058;-69
2021/03/28 02:09:08;;;;;;;5.82;2.45;;;18.60;53.60;;;;;;4991844;28;20033;-70
2021/03/28 02:12:21;;;;;;;6.93;2.97;;;18.60;54.20;;;;;;4992447;28;20034;-68
2021/03/28 02:15:26;;;;;;;6.75;2.40;;;18.50;53.70;;;;;;4974504;28;20133;-68
2021/03/28 02:17:59;;;;;;;5.55;2.38;;;18.50;53.80;;;;;;4989231;28;20124;-70
2021/03/28 02:20:39;;;;;;;6.35;2.38;;;18.50;53.70;;;;;;4986452;28;20100;-71
2021/03/28 02:23:10;;;;;;;6.72;2.42;;;18.50;53.80;;;;;;4976485;28;20496;-67
2021/03/28 02:26:08;;;;;;;5.90;2.38;;;18.50;53.80;;;;;;4975427;28;20027;-69
2021/03/28 02:28:42;;;;;;;6.75;2.10;;;18.50;53.90;;;;;;4972832;28;20058;-70
2021/03/28 02:31:23;;;;;;;6.40;2.40;;;18.50;53.70;;;;;;4982814;28;20031;-70
2021/03/28 02:33:54;;;;;;;6.00;2.47;;;18.40;53.70;;;;;;4985863;28;20030;-68
2021/03/28 02:36:35;;;;;;;8.32;2.40;;;18.40;53.80;;;;;;4987422;28;20027;-69
2021/03/28 02:39:13;;;;;;;6.85;2.42;;;18.40;53.80;;;;;;4974150;28;20057;-69
2021/03/28 02:42:04;;;;;;;7.50;2.35;;;18.40;53.70;;;;;;4976598;28;20387;-67
2021/03/28 02:44:54;;;;;;;6.13;2.30;;;18.40;53.90;;;;;;4988554;28;20121;-66
2021/03/28 02:47:39;;;;;;;5.60;2.20;;;18.30;53.80;;;;;;4973739;28;20038;-69
2021/03/28 02:50:13;;;;;;;4.70;1.92;;;18.30;54.00;;;;;;4974787;28;20078;-69
2021/03/28 02:53:16;;;;;;;8.05;2.45;;;18.30;54.00;;;;;;4979394;28;20558;-66
2021/03/28 02:56:00;;;;;;;6.10;2.28;;;18.30;53.80;;;;;;4986258;28;20029;-69
2021/03/28 02:58:53;;;;;;;5.65;2.00;;;18.20;53.90;;;;;;4992300;28;20026;-70
2021/03/28 03:01:44;;;;;;;6.18;2.40;;;18.20;54.10;;;;;;4989472;28;20034;-71
2021/03/28 03:04:40;;;;;;;5.47;2.00;;;18.20;53.90;;;;;;4975821;28;20037;-68
2021/03/28 03:07:16;;;;;;;6.43;2.10;;;18.20;54.00;;;;;;4985105;28;20052;-69
2021/03/28 03:10:03;;;;;;;5.90;2.10;;;18.20;54.00;;;;;;4979849;28;20496;-69
2021/03/28 03:13:07;;;;;;;4.72;1.92;;;18.20;53.80;;;;;;4976029;28;20039;-69
2021/03/28 03:15:40;;;;;;;6.45;1.95;;;18.10;53.80;;;;;;4983752;28;20038;-68
2021/03/28 03:18:42;;;;;;;6.03;2.00;;;18.10;53.80;;;;;;4974282;28;20691;-67
2021/03/28 03:21:45;;;;;;;5.20;1.90;;;18.10;53.90;;;;;;4974497;28;20029;-69
2021/03/28 03:24:44;;;;;;;5.35;1.77;;;18.00;54.00;;;;;;4978105;28;20068;-69
2021/03/28 03:27:41;;;;;;;5.80;2.03;;;18.00;53.80;;;;;;4991041;28;20618;-71
2021/03/28 03:30:24;;;;;;;5.85;2.15;;;18.00;53.90;;;;;;4977188;28;20022;-72
2021/03/28 03:33:20;;;;;;;5.90;1.90;;;18.00;53.90;;;;;;4993905;28;20042;-69
2021/03/28 03:35:58;;;;;;;6.00;2.05;;;18.00;53.90;;;;;;4976672;28;20669;-69
2021/03/28 03:38:46;;;;;;;5.13;2.00;;;18.00;53.80;;;;;;4990965;28;20488;-71
2021/03/28 03:41:36;;;;;;;4.20;1.90;;;18.00;53.70;;;;;;4983560;28;20034;-69
2021/03/28 03:44:09;;;;;;;6.47;2.28;;;18.00;53.80;;;;;;4988733;28;20019;-69
2021/03/28 03:46:45;;;;;;;5.95;1.90;;;18.00;53.80;;;;;;4987071;28;20558;-70
2021/03/28 03:49:39;;;;;;;5.53;1.75;;;18.00;53.70;;;;;;4981325;28;20036;-69
2021/03/28 03:52:49;;;;;;;4.22;1.83;;;18.00;53.80;;;;;;4993384;28;20030;-68
2021/03/28 03:55:18;;;;;;;5.38;1.90;;;17.90;53.80;;;;;;4993384;28;20037;-70
2021/03/28 03:57:49;;;;;;;6.32;1.92;;;17.90;53.80;;;;;;4980310;28;20180;-70
2021/03/28 04:00:14;;;;;;;5.97;1.80;;;17.90;53.80;;;;;;4984160;28;20030;-69
2021/03/28 04:02:53;;;;;;;6.82;2.10;;;18.00;53.60;;;;;;4981035;28;20030;-69
2021/03/28 04:05:24;;;;;;;5.78;2.03;;;17.90;53.50;;;;;;4992588;28;20022;-69
2021/03/28 04:08:11;;;;;;;5.73;1.87;;;17.90;53.70;;;;;;4981371;28;20037;-70
2021/03/28 04:11:14;;;;;;;5.13;1.90;;;17.90;53.80;;;;;;4991259;28;20270;-71
2021/03/28 04:13:55;;;;;;;5.97;2.00;;;17.90;53.60;;;;;;4988241;28;20035;-71
2021/03/28 04:16:29;;;;;;;7.18;2.35;;;17.90;53.70;;;;;;4987912;28;20480;-71
2021/03/28 04:19:13;;;;;;;5.10;1.98;;;17.80;53.80;;;;;;4987570;28;20051;-70
2021/03/28 04:22:15;;;;;;;3.88;1.58;;;17.80;53.80;;;;;;4977398;28;20539;-71
2021/03/28 04:25:01;;;;;;;5.63;1.95;;;17.80;53.70;;;;;;4984685;28;20057;-70
2021/03/28 04:27:49;;;;;;;6.05;2.20;;;17.80;53.70;;;;;;4977501;28;20467;-69
2021/03/28 04:30:42;;;;;;;4.72;1.48;;;17.90;53.60;;;;;;4989029;28;20042;-71
2021/03/28 04:33:35;;;;;;;5.10;1.70;;;17.80;54.30;;;;;;4975306;28;20502;-71
2021/03/28 04:36:28;;;;;;;5.65;1.70;;;17.80;53.70;;;;;;4976080;28;20034;-71
2021/03/28 04:39:24;;;;;;;6.25;1.85;;;17.80;53.90;;;;;;4976094;28;20117;-71
2021/03/28 04:41:56;;;;;;;5.97;2.00;;;17.70;53.80;;;;;;4981488;28;20026;-68
2021/03/28 04:44:49;;;;;;;7.03;2.15;;;17.70;54.10;;;;;;4981278;28;20099;-71
2021/03/28 04:47:52;;;;;;;5.57;1.75;;;17.70;54.20;;;;;;4992562;28;20030;-70
2021/03/28 04:50:26;;;;;;;4.68;1.70;;;17.70;54.00;;;;;;4990776;28;20031;-71
2021/03/28 04:53:19;;;;;;;5.82;1.95;;;17.70;54.00;;;;;;4989364;28;20476;-69
2021/03/28 04:56:15;;;;;;;5.47;1.92;;;17.70;53.70;;;;;;4989373;28;20045;-69
2021/03/28 04:59:10;;;;;;;5.35;1.70;;;17.80;53.50;;;;;;4985720;28;20023;-68
2021/03/28 05:02:08;;;;;;;5.53;1.60;;;17.90;53.40;;;;;;4981100;28;20110;-70
2021/03/28 05:04:45;;;;;;;5.03;1.80;;;17.90;53.30;;;;;;4977147;28;20077;-71
2021/03/28 05:07:41;;;;;;;6.90;1.67;;;17.90;53.60;;;;;;4985495;28;20088;-69
2021/03/28 05:10:45;;;;;;;6.25;1.50;;;17.90;53.40;;;;;;4965182;28;20126;-70
2021/03/28 05:13:42;;;;;;;4.68;1.70;;;17.90;53.30;;;;;;4943051;29;20568;-70
2021/03/28 05:16:36;;;;;;;5.80;2.25;;;17.90;53.30;;;;;;4950745;29;20046;-70
2021/03/28 05:19:40;;;;;;;5.60;1.80;;;17.90;53.20;;;;;;4971350;28;20035;-71
2021/03/28 05:22:09;;;;;;;6.75;1.80;;;17.90;53.30;;;;;;4973586;28;20110;-71
2021/03/28 05:25:12;;;;;;;5.63;1.63;;;17.90;53.40;;;;;;4977046;28;20027;-70
2021/03/28 05:27:43;;;;;;;4.10;1.60;;;17.80;53.30;;;;;;4989807;28;20053;-69
2021/03/28 05:30:46;;;;;;;5.65;1.67;;;17.90;53.30;;;;;;4991871;28;20544;-69
2021/03/28 05:33:28;;;;;;;6.43;2.10;;;17.80;53.30;;;;;;4994044;28;20034;-69
2021/03/28 05:36:28;;;;;;;5.53;1.70;;;17.90;53.20;;;;;;4988253;28;20496;-69
2021/03/28 05:39:29;;;;;;;6.10;1.77;;;17.80;53.20;;;;;;4991110;28;20037;-71
2021/03/28 05:42:19;;;;;;;5.00;1.70;;;17.80;53.30;;;;;;4993176;28;20397;-70
2021/03/28 05:44:59;;;;;;;4.50;1.73;;;17.90;53.30;;;;;;4994631;28;20031;-68
2021/03/28 05:47:54;;;;;;;4.78;1.50;;;17.80;53.40;;;;;;4994588;28;20112;-69
2021/03/28 05:50:50;;;;;;;5.82;1.88;;;17.80;53.30;;;;;;4994861;28;20027;-68
2021/03/28 05:53:46;;;;;;;5.30;1.90;;;17.80;53.40;;;;;;4993881;28;20029;-69
2021/03/28 05:56:31;;;;;;;6.15;1.70;;;17.80;53.50;;;;;;4986377;28;20372;-70
2021/03/28 05:59:11;;;;;;;6.82;2.00;;;17.80;54.30;;;;;;4972991;28;20101;-71
2021/03/28 06:02:21;;;;;;;8.02;1.60;;;17.80;54.40;;;;;;4986260;28;20077;-70
2021/03/28 06:05:14;;;;;;;6.00;1.98;;;18.40;52.50;;;;;;4988544;28;20488;-71
2021/03/28 06:08:03;;;;;;;4.47;1.58;;;18.30;53.20;;;;;;4987767;28;20069;-70
2021/03/28 06:10:47;;;;;;;4.70;1.58;;;18.00;53.90;;;;;;4988152;28;20096;-72
2021/03/28 06:13:50;;;;;;;5.18;1.70;;;18.00;53.90;;;;;;4987054;28;20105;-70
2021/03/28 06:16:28;;;;;;;5.70;1.88;;;18.00;53.80;;;;;;4985376;28;20081;-68
2021/03/28 06:19:03;;;;;;;6.32;1.80;;;18.00;53.60;;;;;;4987795;28;20440;-70
2021/03/28 06:22:00;;;;;;;5.65;1.90;;;18.10;53.70;;;;;;4986570;28;20072;-71
2021/03/28 06:24:48;;;;;;;5.57;1.70;;;18.00;53.60;;;;;;4968905;28;20023;-69
2021/03/28 06:27:48;;;;;;;7.35;2.08;;;18.10;53.70;;;;;;4979900;28;20031;-75
2021/03/28 06:30:19;;;;;;;;;;;18.00;53.80;;;;;;5008637;28;20399;-69
2021/03/28 06:33:10;;;;;;;5.13;1.77;;;18.00;53.80;;;;;;4984506;28;19909;-70
2021/03/28 06:35:54;;;;;;;;;;;18.00;53.90;;;;;;4968228;28;20050;-70
2021/03/28 06:38:53;;;;;;;4.63;1.80;;;18.10;53.60;;;;;;4968099;28;19921;-70
2021/03/28 06:41:49;;;;;;;4.57;1.57;;;18.10;53.50;;;;;;4967233;28;20072;-70
2021/03/28 06:44:32;;;;;;;11.93;10.07;;;18.10;53.30;;;;;;4968790;28;20031;-71
2021/03/28 06:47:21;;;;;;;8.13;4.68;;;18.20;53.20;;;;;;4983808;28;20233;-70
2021/03/28 06:49:52;;;;;;;6.20;3.38;;;18.30;53.60;;;;;;4977291;28;20848;-70
2021/03/28 06:52:52;;;;;;;7.13;3.58;;;18.20;53.50;;;;;;4966977;28;20034;-70
2021/03/28 06:55:36;;;;;;;9.70;3.60;;;18.20;53.60;;;;;;4985257;28;20030;-70
2021/03/28 06:58:22;;;;;;;8.18;3.10;;;18.40;53.70;;;;;;4985353;28;20041;-71
2021/03/28 07:01:08;;;;;;;7.30;2.72;;;18.40;53.90;;;;;;4982194;28;20026;-72
2021/03/28 07:03:59;;;;;;;7.15;2.75;;;18.40;53.50;;;;;;4988033;28;20030;-72
2021/03/28 07:06:47;;;;;;;6.18;2.50;;;18.30;54.20;;;;;;5003932;28;20038;-72
2021/03/28 07:09:31;;;;;;;7.95;2.30;;;18.10;54.60;;;;;;4982822;28;20089;-71
2021/03/28 07:12:04;;;;;;;5.45;2.28;;;18.00;54.70;;;;;;4971797;28;20023;-71
2021/03/28 07:14:45;;;;;;;5.38;2.38;;;18.00;55.00;;;;;;4969722;28;20374;-71
2021/03/28 07:17:42;;;;;;;5.28;2.20;;;18.00;54.80;;;;;;4983557;28;20092;-71
2021/03/28 07:20:50;;;;;;;5.82;2.15;;;17.90;54.70;;;;;;4983297;28;20105;-71
2021/03/28 07:23:46;;;;;;;8.07;2.42;;;17.90;54.80;;;;;;4985150;28;20022;-71
2021/03/28 07:26:39;;;;;;;5.43;2.00;;;17.90;54.90;;;;;;4984843;28;20523;-68
2021/03/28 07:29:24;;;;;;;5.97;1.98;;;17.90;54.90;;;;;;4965232;28;20053;-69
2021/03/28 07:32:04;;;;;;;11.57;2.50;;;17.80;55.30;;;;;;4966819;28;20130;-69
2021/03/28 07:34:56;;;;;;;10.00;2.28;;;17.80;55.50;;;;;;4981301;28;20030;-71
2021/03/28 07:37:59;;;;;;;8.70;2.42;;;17.80;55.60;;;;;;4974192;28;20117;-71
2021/03/28 07:40:32;;;;;;;8.30;2.40;;;17.80;55.90;;;;;;4993125;28;20034;-69
2021/03/28 07:43:28;;;;;;;10.40;2.50;;;17.80;56.40;;;;;;4988279;28;20022;-69
2021/03/28 07:46:15;;;;;;;13.48;2.63;;;17.80;56.60;;;;;;4991721;28;20030;-67
2021/03/28 07:48:44;;;;;;;9.75;2.75;;;17.90;56.40;;;;;;5006513;28;20097;-71
2021/03/28 07:51:47;;;;;;;10.05;2.35;;;17.90;55.50;;;;;;4995034;28;20046;-70
2021/03/28 07:54:34;;;;;;;9.30;2.70;;;17.90;55.90;;;;;;4986211;28;20030;-68
2021/03/28 07:57:19;;;;;;;10.65;2.60;;;17.90;56.30;;;;;;4972066;28;20034;-71
2021/03/28 08:00:00;;;;;;;10.07;2.63;;;17.90;56.50;;;;;;4985035;28;20022;-69
2021/03/28 08:02:45;;;;;;;10.68;2.55;;;17.80;56.60;;;;;;4984978;28;20034;-71
2021/03/28 08:05:38;;;;;;;8.95;2.47;;;17.90;56.60;;;;;;4967322;28;20759;-70
2021/03/28 08:08:45;;;;;;;9.35;2.55;;;17.90;56.50;;;;;;4967180;28;20515;-70
2021/03/28 08:11:23;;;;;;;8.18;2.45;;;17.90;56.60;;;;;;4945417;28;20554;-70
2021/03/28 08:14:26;;;;;;;7.57;2.13;;;17.90;56.60;;;;;;4945664;29;20481;-70
2021/03/28 08:17:30;;;;;;;8.80;2.10;;;17.90;56.70;;;;;;4976679;28;20038;-72
2021/03/28 08:20:14;;;;;;;8.40;2.10;;;18.00;56.60;;;;;;4986254;28;20081;-71
2021/03/28 08:23:07;;;;;;;8.63;2.28;;;17.90;56.90;;;;;;4984860;28;20033;-72
2021/03/28 08:26:08;;;;;;;9.05;2.20;;;17.90;56.60;;;;;;4978907;28;20578;-68
2021/03/28 08:28:52;;;;;;;7.18;2.10;;;18.00;56.60;;;;;;4981344;28;20061;-70
2021/03/28 08:31:48;;;;;;;9.68;2.20;;;17.90;56.70;;;;;;4965524;28;20023;-72
2021/03/28 08:34:59;;;;;;;7.53;1.95;;;17.90;56.60;;;;;;4967205;28;20034;-71
2021/03/28 08:37:45;;;;;;;9.75;1.88;;;17.90;56.90;;;;;;4966881;28;20035;-71
2021/03/28 08:40:29;;;;;;;6.00;1.95;;;17.90;56.50;;;;;;4965155;28;20027;-70
2021/03/28 08:43:15;;;;;;;7.45;2.00;;;17.80;56.50;;;;;;4965374;28;20035;-69
2021/03/28 08:46:12;;;;;;;6.68;1.95;;;17.90;56.60;;;;;;4965955;28;20028;-67
2021/03/28 08:49:01;;;;;;;8.00;1.83;;;17.90;56.90;;;;;;4982143;28;20113;-69
2021/03/28 08:52:04;;;;;;;9.75;1.98;;;17.90;56.70;;;;;;4985984;28;20565;-69
2021/03/28 08:55:14;;;;;;;9.15;2.00;;;17.90;56.80;;;;;;4966710;28;20027;-70
2021/03/28 08:58:01;;;;;;;7.40;2.03;;;18.00;56.40;;;;;;4977111;28;20054;-69
2021/03/28 09:00:40;;;;;;;6.55;1.75;;;18.00;56.30;;;;;;4979752;28;20035;-70
2021/03/28 09:03:11;;;;;;;6.57;1.90;;;18.00;56.30;;;;;;4965996;28;20030;-69
2021/03/28 09:05:43;;;;;;;8.43;2.08;;;18.00;56.30;;;;;;4970634;28;20031;-70
2021/03/28 09:08:10;;;;;;;10.02;4.53;;;18.00;56.10;;;;;;4967105;28;20122;-70
2021/03/28 09:11:31;;;;;;;10.90;5.20;;;18.00;56.50;;;;;;4965847;28;20026;-69
2021/03/28 09:14:18;;;;;;;8.98;3.42;;;18.10;56.30;;;;;;4965207;28;20027;-70
2021/03/28 09:17:10;;;;;;;7.53;2.97;;;18.10;56.40;;;;;;4971499;28;20030;-70
2021/03/28 09:19:55;;;;;;;7.93;3.40;;;18.20;56.10;;;;;;4966322;28;20057;-70
2021/03/28 09:23:12;;;;;;;7.15;2.75;;;18.20;56.10;;;;;;4963967;28;20396;-68
2021/03/28 09:26:05;;;;;;;39.10;26.70;;;18.40;55.90;;;;;;4956352;28;20046;-68
2021/03/28 09:28:39;;;;;;;11.23;5.60;;;18.70;55.40;;;;;;4964897;28;20784;-71
2021/03/28 09:31:11;;;;;;;11.05;4.10;;;18.90;54.20;;;;;;4966557;28;20035;-69
2021/03/28 09:34:00;;;;;;;10.45;4.80;;;19.00;53.80;;;;;;4965182;28;20518;-71
2021/03/28 09:36:33;;;;;;;38.65;25.38;;;19.50;52.50;;;;;;4967434;28;20042;-67
2021/03/28 09:39:26;;;;;;;14.50;8.23;;;19.70;52.10;;;;;;4984235;28;20495;-68
2021/03/28 09:42:18;;;;;;;15.43;9.23;;;19.70;51.60;;;;;;4985909;28;20571;-70
2021/03/28 09:45:22;;;;;;;94.95;63.08;;;20.00;50.60;;;;;;4984440;28;20133;-71
2021/03/28 09:48:12;;;;;;;58.00;42.92;;;20.20;49.70;;;;;;4979041;28;20030;-70
2021/03/28 09:51:12;;;;;;;86.60;63.58;;;20.00;50.70;;;;;;4983659;28;20022;-68
2021/03/28 09:53:49;;;;;;;85.68;59.40;;;19.60;51.30;;;;;;4983983;28;20033;-73
2021/03/28 09:56:48;;;;;;;63.05;42.95;;;19.50;52.50;;;;;;4983646;28;20072;-67
2021/03/28 09:59:37;;;;;;;68.13;47.17;;;19.50;51.50;;;;;;4981190;28;20084;-68
2021/03/28 10:02:30;;;;;;;65.60;47.45;;;19.40;52.50;;;;;;4981818;28;20073;-69
2021/03/28 10:05:08;;;;;;;67.28;44.38;;;19.50;51.90;;;;;;4985665;28;20060;-70
2021/03/28 10:08:05;;;;;;;80.75;52.00;;;19.70;52.30;;;;;;4993656;28;20026;-67
2021/03/28 10:10:35;;;;;;;98.88;57.90;;;19.70;52.10;;;;;;4987430;28;20550;-68
2021/03/28 10:13:31;;;;;;;110.32;63.45;;;19.90;51.20;;;;;;4986798;28;20506;-72
2021/03/28 10:16:12;;;;;;;135.90;72.53;;;20.40;50.90;;;;;;4989036;28;20030;-75
2021/03/28 10:18:38;;;;;;;;;;;21.30;49.10;;;;;;4987525;28;20030;-71
2021/03/28 10:21:36;;;;;;;124.07;71.13;;;22.10;46.50;;;;;;4988528;28;19920;-69
2021/03/28 10:24:29;;;;;;;116.53;61.47;;;22.30;45.70;;;;;;4967803;28;20126;-71
2021/03/28 10:27:29;;;;;;;134.82;77.30;;;22.20;45.90;;;;;;4980892;28;20581;-76
2021/03/28 10:30:17;;;;;;;111.80;66.72;;;21.30;48.10;;;;;;4988163;28;20057;-72
2021/03/28 10:32:51;;;;;;;130.68;76.15;;;21.00;49.10;;;;;;4988277;28;20161;-72
2021/03/28 10:35:53;;;;;;;112.13;67.25;;;21.00;49.60;;;;;;4988355;28;20401;-72
2021/03/28 10:38:38;;;;;;;106.15;62.60;;;20.90;49.60;;;;;;4987919;28;20037;-72
2021/03/28 10:41:12;;;;;;;101.30;58.25;;;20.90;49.60;;;;;;4986363;28;20118;-72
2021/03/28 10:43:38;;;;;;;88.93;50.45;;;20.80;49.60;;;;;;4979011;28;20030;-70
2021/03/28 10:46:32;;;;;;;106.28;59.25;;;20.70;50.70;;;;;;4984838;28;20061;-69
2021/03/28 10:49:35;;;;;;;104.65;58.08;;;20.50;50.60;;;;;;4984011;28;20555;-72
2021/03/28 10:52:39;;;;;;;82.22;44.53;;;20.40;50.80;;;;;;4984564;28;20539;-71
2021/03/28 10:55:23;;;;;;;93.25;51.33;;;20.50;51.30;;;;;;4947633;28;20126;-73
2021/03/28 10:58:26;;;;;;;90.10;52.88;;;20.40;50.60;;;;;;4977547;28;20033;-71
2021/03/28 11:01:20;;;;;;;88.60;49.38;;;20.40;50.60;;;;;;4984835;28;20381;-73
2021/03/28 11:04:06;;;;;;;86.07;47.58;;;20.40;50.40;;;;;;4987906;28;20483;-69
2021/03/28 11:06:49;;;;;;;69.88;39.78;;;20.20;50.80;;;;;;4972024;28;20113;-71
2021/03/28 11:09:52;;;;;;;73.05;42.85;;;20.10;51.10;;;;;;4986078;28;20039;-70
2021/03/28 11:12:37;;;;;;;44.58;24.98;;;19.90;51.30;;;;;;4974474;28;20035;-71
2021/03/28 11:15:42;;;;;;;64.38;35.42;;;19.90;50.60;;;;;;4973695;28;20057;-71
2021/03/28 11:18:29;;;;;;;48.08;26.63;;;19.90;51.60;;;;;;4970396;28;20026;-70
2021/03/28 11:21:32;;;;;;;46.30;26.63;;;19.90;50.50;;;;;;4971419;28;20539;-69
2021/03/28 11:24:35;;;;;;;42.03;23.38;;;19.90;50.20;;;;;;4970173;28;20029;-71
2021/03/28 11:27:38;;;;;;;49.55;26.00;;;19.90;49.90;;;;;;4983930;28;20025;-71
2021/03/28 11:30:15;;;;;;;52.05;19.80;;;20.00;50.00;;;;;;4991309;28;20026;-71
2021/03/28 11:32:53;;;;;;;41.47;22.23;;;20.10;49.60;;;;;;4991535;28;20019;-72
2021/03/28 11:35:26;;;;;;;46.20;23.63;;;20.00;49.70;;;;;;4976863;28;20027;-72
2021/03/28 11:38:17;;;;;;;42.45;23.15;;;20.30;49.20;;;;;;4986533;28;20061;-72
2021/03/28 11:40:51;;;;;;;44.10;23.10;;;20.40;48.80;;;;;;4993593;28;20018;-70
2021/03/28 11:43:40;;;;;;;41.35;22.92;;;20.40;49.00;;;;;;4991884;28;20030;-71
2021/03/28 11:46:05;;;;;;;41.72;22.25;;;20.30;49.20;;;;;;4993040;28;20496;-70
2021/03/28 11:49:05;;;;;;;42.22;22.50;;;20.40;49.20;;;;;;4992883;28;20080;-72
2021/03/28 11:51:34;;;;;;;;;;;20.40;49.20;;;;;;4961150;28;20706;-70
2021/03/28 11:54:08;;;;;;;38.30;21.05;;;20.30;49.30;;;;;;4991128;28;19929;-72
2021/03/28 11:56:36;;;;;;;37.72;20.45;;;20.20;49.70;;;;;;4982718;28;20030;-73
2021/03/28 11:59:11;;;;;;;34.58;18.88;;;20.10;49.90;;;;;;5008491;28;20026;-72
2021/03/28 12:01:55;;;;;;;32.55;17.33;;;20.00;50.30;;;;;;4985579;28;20030;-72
2021/03/28 12:04:23;;;;;;;33.00;19.63;;;19.90;50.30;;;;;;4976516;28;20029;-70
2021/03/28 12:06:56;;;;;;;30.63;18.55;;;19.90;51.00;;;;;;4984979;28;20079;-69
2021/03/28 12:09:33;;;;;;;31.33;19.35;;;19.80;50.70;;;;;;4976341;28;20018;-68
2021/03/28 12:12:24;;;;;;;34.67;18.38;;;19.70;50.80;;;;;;4982419;28;20019;-68
2021/03/28 12:14:50;;;;;;;32.45;17.58;;;19.60;51.00;;;;;;4973905;28;20535;-69
2021/03/28 12:17:28;;;;;;;32.47;17.38;;;19.60;51.20;;;;;;4987580;28;20165;-71
2021/03/28 12:20:15;;;;;;;27.95;16.75;;;19.50;51.30;;;;;;4991534;28;20026;-70
2021/03/28 12:22:41;;;;;;;32.20;16.92;;;19.50;51.40;;;;;;4993165;28;20053;-70
2021/03/28 12:25:21;;;;;;;36.17;16.52;;;19.50;51.50;;;;;;4990692;28;20014;-71
2021/03/28 12:28:02;;;;;;;31.63;16.40;;;19.50;51.60;;;;;;4992299;28;20026;-72
2021/03/28 12:30:31;;;;;;;31.40;16.45;;;19.40;51.70;;;;;;4992221;28;20023;-70
2021/03/28 12:33:02;;;;;;;27.80;15.23;;;19.40;51.80;;;;;;4991818;28;20022;-72
2021/03/28 12:35:36;;;;;;;29.90;14.70;;;19.30;51.70;;;;;;4992650;28;20030;-71
2021/03/28 12:38:33;;;;;;;29.80;15.18;;;19.30;51.70;;;;;;4992190;28;20034;-71
2021/03/28 12:41:22;;;;;;;30.95;14.98;;;19.30;51.70;;;;;;4992681;28;20073;-69
2021/03/28 12:44:31;;;;;;;27.70;13.95;;;19.30;51.70;;;;;;4992467;28;20113;-71
2021/03/28 12:47:05;;;;;;;30.15;13.68;;;19.20;51.80;;;;;;4982357;28;20388;-69
2021/03/28 12:49:47;;;;;;;22.38;12.23;;;19.20;51.90;;;;;;4991072;28;20037;-71
2021/03/28 12:52:13;;;;;;;27.50;13.77;;;19.20;51.80;;;;;;4992431;28;20042;-71
2021/03/28 12:54:52;;;;;;;23.92;11.70;;;19.20;51.90;;;;;;4991179;28;20026;-70
2021/03/28 12:57:57;;;;;;;22.00;12.35;;;19.20;52.00;;;;;;4991024;28;20033;-70
2021/03/28 13:00:31;;;;;;;19.75;11.02;;;19.10;51.70;;;;;;4991935;28;20445;-72
2021/03/28 13:02:58;;;;;;;21.17;11.15;;;19.10;51.70;;;;;;4991104;28;20037;-71
2021/03/28 13:05:34;;;;;;;20.63;11.32;;;19.10;51.90;;;;;;4990944;28;20026;-71
2021/03/28 13:08:09;;;;;;;17.38;8.95;;;19.10;51.90;;;;;;4990510;28;20034;-72
2021/03/28 13:10:39;;;;;;;17.95;10.48;;;19.10;51.60;;;;;;4991448;28;20049;-71
2021/03/28 13:13:26;;;;;;;21.60;11.27;;;19.10;52.00;;;;;;4991747;28;20034;-70
2021/03/28 13:15:57;;;;;;;22.38;11.18;;;19.10;51.80;;;;;;4991743;28;20026;-71
2021/03/28 13:18:32;;;;;;;20.40;11.13;;;19.10;51.90;;;;;;4990442;28;20038;-71
2021/03/28 13:20:59;;;;;;;17.42;10.10;;;19.10;51.70;;;;;;4990665;28;20100;-68
2021/03/28 13:23:28;;;;;;;17.67;10.20;;;19.10;51.60;;;;;;4989389;28;20042;-72
2021/03/28 13:26:06;;;;;;;19.50;10.05;;;19.00;51.70;;;;;;4983042;28;20027;-70
2021/03/28 13:28:33;;;;;;;18.45;9.50;;;19.10;51.20;;;;;;4996315;28;20030;-72
2021/03/28 13:31:32;;;;;;;19.08;9.50;;;19.10;51.30;;;;;;5008459;28;20018;-71
2021/03/28 13:34:23;;;;;;;21.90;8.85;;;19.20;51.40;;;;;;4978274;28;20019;-71
2021/03/28 13:37:24;;;;;;;21.83;8.93;;;19.30;50.80;;;;;;4987474;28;20068;-70
2021/03/28 13:40:05;;;;;;;16.98;9.07;;;19.30;50.90;;;;;;4976684;28;20031;-70
2021/03/28 13:42:33;;;;;;;18.63;9.43;;;19.40;50.60;;;;;;4988804;28;20567;-69
2021/03/28 13:45:07;;;;;;;18.17;8.65;;;19.40;50.70;;;;;;5006261;28;20022;-71
2021/03/28 13:47:41;;;;;;;22.23;9.05;;;19.30;50.40;;;;;;4995015;28;20030;-70
2021/03/28 13:50:29;;;;;;;32.58;9.70;;;19.30;50.90;;;;;;4990191;28;20033;-71
2021/03/28 13:52:56;;;;;;;16.40;7.70;;;19.40;51.00;;;;;;4983346;28;20046;-69
2021/03/28 13:55:43;;;;;;;18.85;7.35;;;19.30;50.40;;;;;;4995079;28;20034;-69
2021/03/28 13:58:18;;;;;;;22.02;7.25;;;19.30;50.40;;;;;;4996297;28;20018;-67
2021/03/28 14:00:45;;;;;;;18.98;7.30;;;19.20;50.80;;;;;;4999317;28;20030;-69
2021/03/28 14:03:34;;;;;;;21.30;7.70;;;19.30;51.10;;;;;;4995011;28;20035;-71
2021/03/28 14:06:28;;;;;;;20.35;7.60;;;19.30;50.80;;;;;;4995395;28;20019;-69
2021/03/28 14:09:07;;;;;;;19.15;7.65;;;19.30;50.80;;;;;;4994750;28;20023;-69
2021/03/28 14:11:54;;;;;;;16.67;7.47;;;19.30;50.90;;;;;;4994918;28;20102;-69
2021/03/28 14:14:25;;;;;;;17.80;7.63;;;19.30;50.80;;;;;;4991479;28;20500;-71
2021/03/28 14:16:54;;;;;;;16.60;7.03;;;19.30;51.00;;;;;;4995198;28;20480;-70